sensor_id;sensor_type;location;lat;lon;timestamp;temperature;humidity
13610;DHT22;6876;50.788;4.940;2022-09-09T00:00:33;15.50;99.90
13610;DHT22;6876;50.788;4.940;2022-09-09T00:03:25;15.50;99.90
13610;DHT22;6876;50.788;4.940;2022-09-09T00:06:19;15.50;99.90
13610;DHT22;6876;50.788;4.940;2022-09-09T00:09:12;15.50;99.90
13610;DHT22;6876;50.788;4.940;2022-09-09T00:12:02;15.50;99.90
13610;DHT22;6876;50.788;4.940;2022-09-09T00:14:54;15.30;99.90
13610;DHT22;6876;50.788;4.940;2022-09-09T00:17:47;15.30;99.90
13610;DHT22;6876;50.788;4.940;2022-09-09T00:20:43;15.30;99.90
13610;DHT22;6876;50.788;4.940;2022-09-09T00:23:34;15.30;99.90
13610;DHT22;6876;50.788;4.940;2022-09-09T00:26:30;15.30;99.90
13610;DHT22;6876;50.788;4.940;2022-09-09T00:29:26;15.30;99.90
13610;DHT22;6876;50.788;4.940;2022-09-09T00:32:18;15.40;99.90
13610;DHT22;6876;50.788;4.940;2022-09-09T00:35:16;15.20;99.90
13610;DHT22;6876;50.788;4.940;2022-09-09T00:38:10;15.20;99.90
13610;DHT22;6876;50.788;4.940;2022-09-09T00:41:03;15.10;99.90
13610;DHT22;6876;50.788;4.940;2022-09-09T00:43:56;15.10;99.90
13610;DHT22;6876;50.788;4.940;2022-09-09T00:46:56;15.10;99.90
13610;DHT22;6876;50.788;4.940;2022-09-09T00:49:58;15.20;99.90
13610;DHT22;6876;50.788;4.940;2022-09-09T00:52:55;15.20;99.90
13610;DHT22;6876;50.788;4.940;2022-09-09T00:55:48;15.30;99.90
13610;DHT22;6876;50.788;4.940;2022-09-09T00:58:36;15.40;99.90
13610;DHT22;6876;50.788;4.940;2022-09-09T01:01:23;15.40;99.90
13610;DHT22;6876;50.788;4.940;2022-09-09T01:04:14;15.50;99.90
13610;DHT22;6876;50.788;4.940;2022-09-09T01:07:11;15.50;99.90
13610;DHT22;6876;50.788;4.940;2022-09-09T01:10:07;15.60;99.90
13610;DHT22;6876;50.788;4.940;2022-09-09T01:12:58;15.50;99.90
13610;DHT22;6876;50.788;4.940;2022-09-09T01:15:48;15.60;99.90
13610;DHT22;6876;50.788;4.940;2022-09-09T01:18:39;15.50;99.90
13610;DHT22;6876;50.788;4.940;2022-09-09T01:21:36;15.50;99.90
13610;DHT22;6876;50.788;4.940;2022-09-09T01:24:34;15.40;99.90
13610;DHT22;6876;50.788;4.940;2022-09-09T01:27:24;15.40;99.90
13610;DHT22;6876;50.788;4.940;2022-09-09T01:30:13;15.40;99.90
13610;DHT22;6876;50.788;4.940;2022-09-09T01:33:02;15.50;99.90
13610;DHT22;6876;50.788;4.940;2022-09-09T01:35:53;15.50;99.90
13610;DHT22;6876;50.788;4.940;2022-09-09T01:38:42;15.50;99.90
13610;DHT22;6876;50.788;4.940;2022-09-09T01:41:29;15.50;99.90
13610;DHT22;6876;50.788;4.940;2022-09-09T01:44:19;15.50;99.90
13610;DHT22;6876;50.788;4.940;2022-09-09T01:47:06;15.50;99.90
13610;DHT22;6876;50.788;4.940;2022-09-09T01:49:54;15.60;99.90
13610;DHT22;6876;50.788;4.940;2022-09-09T01:52:42;15.60;99.90
13610;DHT22;6876;50.788;4.940;2022-09-09T01:55:33;15.60;99.90
13610;DHT22;6876;50.788;4.940;2022-09-09T01:58:31;15.60;99.90
13610;DHT22;6876;50.788;4.940;2022-09-09T02:01:27;15.60;99.90
13610;DHT22;6876;50.788;4.940;2022-09-09T02:04:27;15.50;99.90
13610;DHT22;6876;50.788;4.940;2022-09-09T02:07:30;15.50;99.90
13610;DHT22;6876;50.788;4.940;2022-09-09T02:10:25;15.60;99.90
13610;DHT22;6876;50.788;4.940;2022-09-09T02:13:18;15.50;99.90
13610;DHT22;6876;50.788;4.940;2022-09-09T02:16:08;15.40;99.90
13610;DHT22;6876;50.788;4.940;2022-09-09T02:19:01;15.50;99.90
13610;DHT22;6876;50.788;4.940;2022-09-09T02:21:50;15.50;99.90
13610;DHT22;6876;50.788;4.940;2022-09-09T02:24:40;15.50;99.90
13610;DHT22;6876;50.788;4.940;2022-09-09T02:27:28;15.50;99.90
13610;DHT22;6876;50.788;4.940;2022-09-09T02:30:15;15.40;99.90
13610;DHT22;6876;50.788;4.940;2022-09-09T02:33:04;15.40;99.90
13610;DHT22;6876;50.788;4.940;2022-09-09T02:35:57;15.40;99.90
13610;DHT22;6876;50.788;4.940;2022-09-09T02:38:49;15.40;99.90
13610;DHT22;6876;50.788;4.940;2022-09-09T02:41:41;15.40;99.90
13610;DHT22;6876;50.788;4.940;2022-09-09T02:44:28;15.40;99.90
13610;DHT22;6876;50.788;4.940;2022-09-09T02:47:22;15.40;99.90
13610;DHT22;6876;50.788;4.940;2022-09-09T02:50:13;15.40;99.90
13610;DHT22;6876;50.788;4.940;2022-09-09T02:53:09;15.30;99.90
13610;DHT22;6876;50.788;4.940;2022-09-09T02:55:59;15.30;99.90
13610;DHT22;6876;50.788;4.940;2022-09-09T02:58:49;15.40;99.90
13610;DHT22;6876;50.788;4.940;2022-09-09T03:01:37;15.30;99.90
13610;DHT22;6876;50.788;4.940;2022-09-09T03:04:26;15.30;99.90
13610;DHT22;6876;50.788;4.940;2022-09-09T03:07:13;15.20;99.90
13610;DHT22;6876;50.788;4.940;2022-09-09T03:10:03;15.30;99.90
13610;DHT22;6876;50.788;4.940;2022-09-09T03:12:51;15.20;99.90
13610;DHT22;6876;50.788;4.940;2022-09-09T03:15:38;15.30;99.90
13610;DHT22;6876;50.788;4.940;2022-09-09T03:18:25;15.30;99.90
13610;DHT22;6876;50.788;4.940;2022-09-09T03:21:13;15.30;99.90
13610;DHT22;6876;50.788;4.940;2022-09-09T03:24:01;15.30;99.90
13610;DHT22;6876;50.788;4.940;2022-09-09T03:26:50;15.20;99.90
13610;DHT22;6876;50.788;4.940;2022-09-09T03:29:37;15.20;99.90
13610;DHT22;6876;50.788;4.940;2022-09-09T03:32:25;15.10;99.90
13610;DHT22;6876;50.788;4.940;2022-09-09T03:35:13;15.10;99.90
13610;DHT22;6876;50.788;4.940;2022-09-09T03:38:01;15.20;99.90
13610;DHT22;6876;50.788;4.940;2022-09-09T03:40:50;15.10;99.90
13610;DHT22;6876;50.788;4.940;2022-09-09T03:43:42;15.10;99.90
13610;DHT22;6876;50.788;4.940;2022-09-09T03:46:29;15.20;99.90
13610;DHT22;6876;50.788;4.940;2022-09-09T03:49:17;15.10;99.90
13610;DHT22;6876;50.788;4.940;2022-09-09T03:52:06;15.20;99.90
13610;DHT22;6876;50.788;4.940;2022-09-09T03:54:53;15.20;99.90
13610;DHT22;6876;50.788;4.940;2022-09-09T03:57:42;15.20;99.90
13610;DHT22;6876;50.788;4.940;2022-09-09T04:00:31;15.30;99.90
13610;DHT22;6876;50.788;4.940;2022-09-09T04:03:18;15.30;99.90
13610;DHT22;6876;50.788;4.940;2022-09-09T04:06:07;15.20;99.90
13610;DHT22;6876;50.788;4.940;2022-09-09T04:08:55;15.20;99.90
13610;DHT22;6876;50.788;4.940;2022-09-09T04:11:42;15.20;99.90
13610;DHT22;6876;50.788;4.940;2022-09-09T04:14:29;15.10;99.90
13610;DHT22;6876;50.788;4.940;2022-09-09T04:17:18;15.10;99.90
13610;DHT22;6876;50.788;4.940;2022-09-09T04:20:06;15.10;99.90
13610;DHT22;6876;50.788;4.940;2022-09-09T04:22:57;15.10;99.90
13610;DHT22;6876;50.788;4.940;2022-09-09T04:25:44;15.00;99.90
13610;DHT22;6876;50.788;4.940;2022-09-09T04:28:34;15.10;99.90
13610;DHT22;6876;50.788;4.940;2022-09-09T04:31:22;15.10;99.90
13610;DHT22;6876;50.788;4.940;2022-09-09T04:34:11;15.10;99.90
13610;DHT22;6876;50.788;4.940;2022-09-09T04:37:00;15.10;99.90
13610;DHT22;6876;50.788;4.940;2022-09-09T04:39:48;15.10;99.90
13610;DHT22;6876;50.788;4.940;2022-09-09T04:42:35;15.10;99.90
13610;DHT22;6876;50.788;4.940;2022-09-09T04:45:22;15.10;99.90
13610;DHT22;6876;50.788;4.940;2022-09-09T04:48:10;15.00;99.90
13610;DHT22;6876;50.788;4.940;2022-09-09T04:51:00;15.10;99.90
13610;DHT22;6876;50.788;4.940;2022-09-09T04:53:47;15.10;99.90
13610;DHT22;6876;50.788;4.940;2022-09-09T04:56:36;15.10;99.90
13610;DHT22;6876;50.788;4.940;2022-09-09T04:59:23;15.20;99.90
13610;DHT22;6876;50.788;4.940;2022-09-09T05:02:11;15.20;99.90
13610;DHT22;6876;50.788;4.940;2022-09-09T05:04:58;15.20;99.90
13610;DHT22;6876;50.788;4.940;2022-09-09T05:07:47;15.40;99.90
13610;DHT22;6876;50.788;4.940;2022-09-09T05:10:37;15.40;99.90
13610;DHT22;6876;50.788;4.940;2022-09-09T05:13:25;15.30;99.90
13610;DHT22;6876;50.788;4.940;2022-09-09T05:16:13;15.40;99.90
13610;DHT22;6876;50.788;4.940;2022-09-09T05:19:00;15.40;99.90
13610;DHT22;6876;50.788;4.940;2022-09-09T05:21:49;15.50;99.90
13610;DHT22;6876;50.788;4.940;2022-09-09T05:24:38;15.60;99.90
13610;DHT22;6876;50.788;4.940;2022-09-09T05:27:25;15.50;99.90
13610;DHT22;6876;50.788;4.940;2022-09-09T05:30:13;15.60;99.90
13610;DHT22;6876;50.788;4.940;2022-09-09T05:33:00;15.60;99.90
13610;DHT22;6876;50.788;4.940;2022-09-09T05:35:47;15.60;99.90
13610;DHT22;6876;50.788;4.940;2022-09-09T05:38:35;15.60;99.90
13610;DHT22;6876;50.788;4.940;2022-09-09T05:41:23;14.50;99.90
13610;DHT22;6876;50.788;4.940;2022-09-09T05:44:11;15.80;99.90
13610;DHT22;6876;50.788;4.940;2022-09-09T05:46:59;15.90;99.90
13610;DHT22;6876;50.788;4.940;2022-09-09T05:49:47;15.90;99.90
13610;DHT22;6876;50.788;4.940;2022-09-09T05:52:35;16.00;99.90
13610;DHT22;6876;50.788;4.940;2022-09-09T05:55:23;16.00;99.90
13610;DHT22;6876;50.788;4.940;2022-09-09T05:58:12;16.10;99.90
13610;DHT22;6876;50.788;4.940;2022-09-09T06:01:02;16.10;99.90
13610;DHT22;6876;50.788;4.940;2022-09-09T06:03:50;16.00;99.90
13610;DHT22;6876;50.788;4.940;2022-09-09T06:06:38;16.20;99.90
13610;DHT22;6876;50.788;4.940;2022-09-09T06:09:25;16.20;99.90
13610;DHT22;6876;50.788;4.940;2022-09-09T06:12:13;16.30;99.90
13610;DHT22;6876;50.788;4.940;2022-09-09T06:15:01;17.20;99.90
13610;DHT22;6876;50.788;4.940;2022-09-09T06:17:54;18.00;99.90
13610;DHT22;6876;50.788;4.940;2022-09-09T06:20:42;18.80;99.90
13610;DHT22;6876;50.788;4.940;2022-09-09T06:23:29;19.30;99.90
13610;DHT22;6876;50.788;4.940;2022-09-09T06:26:18;18.70;99.90
13610;DHT22;6876;50.788;4.940;2022-09-09T06:29:05;17.90;99.90
13610;DHT22;6876;50.788;4.940;2022-09-09T06:31:54;17.50;99.90
13610;DHT22;6876;50.788;4.940;2022-09-09T06:34:42;17.70;99.90
13610;DHT22;6876;50.788;4.940;2022-09-09T06:37:31;18.90;99.90
13610;DHT22;6876;50.788;4.940;2022-09-09T06:40:18;19.00;99.90
13610;DHT22;6876;50.788;4.940;2022-09-09T06:43:06;18.20;99.90
13610;DHT22;6876;50.788;4.940;2022-09-09T06:45:54;17.70;99.90
13610;DHT22;6876;50.788;4.940;2022-09-09T06:48:43;17.50;99.90
13610;DHT22;6876;50.788;4.940;2022-09-09T06:51:33;17.30;99.90
13610;DHT22;6876;50.788;4.940;2022-09-09T06:54:21;17.40;99.90
13610;DHT22;6876;50.788;4.940;2022-09-09T06:57:10;18.20;99.90
13610;DHT22;6876;50.788;4.940;2022-09-09T06:59:57;18.50;99.90
13610;DHT22;6876;50.788;4.940;2022-09-09T07:02:44;18.70;99.90
13610;DHT22;6876;50.788;4.940;2022-09-09T07:05:33;18.60;99.90
13610;DHT22;6876;50.788;4.940;2022-09-09T07:08:21;18.50;99.90
13610;DHT22;6876;50.788;4.940;2022-09-09T07:11:08;18.40;99.90
13610;DHT22;6876;50.788;4.940;2022-09-09T07:13:58;18.20;99.90
13610;DHT22;6876;50.788;4.940;2022-09-09T07:16:46;18.30;99.90
13610;DHT22;6876;50.788;4.940;2022-09-09T07:19:33;18.30;99.90
13610;DHT22;6876;50.788;4.940;2022-09-09T07:22:22;18.30;99.90
13610;DHT22;6876;50.788;4.940;2022-09-09T07:25:10;18.10;99.90
13610;DHT22;6876;50.788;4.940;2022-09-09T07:27:57;18.00;99.90
13610;DHT22;6876;50.788;4.940;2022-09-09T07:30:53;17.70;99.90
13610;DHT22;6876;50.788;4.940;2022-09-09T07:33:40;17.50;99.90
13610;DHT22;6876;50.788;4.940;2022-09-09T07:36:29;17.60;99.90
13610;DHT22;6876;50.788;4.940;2022-09-09T07:39:17;17.60;99.90
13610;DHT22;6876;50.788;4.940;2022-09-09T07:42:05;17.60;99.90
13610;DHT22;6876;50.788;4.940;2022-09-09T07:44:52;17.50;99.90
13610;DHT22;6876;50.788;4.940;2022-09-09T07:47:40;17.30;99.90
13610;DHT22;6876;50.788;4.940;2022-09-09T07:50:28;17.30;99.90
13610;DHT22;6876;50.788;4.940;2022-09-09T07:53:16;17.40;99.90
13610;DHT22;6876;50.788;4.940;2022-09-09T07:56:06;17.40;99.90
13610;DHT22;6876;50.788;4.940;2022-09-09T07:58:56;17.40;99.90
13610;DHT22;6876;50.788;4.940;2022-09-09T08:01:46;17.40;99.90
13610;DHT22;6876;50.788;4.940;2022-09-09T08:04:33;17.40;99.90
13610;DHT22;6876;50.788;4.940;2022-09-09T08:07:21;17.40;99.90
13610;DHT22;6876;50.788;4.940;2022-09-09T08:10:08;17.50;99.90
13610;DHT22;6876;50.788;4.940;2022-09-09T08:12:57;17.50;99.90
13610;DHT22;6876;50.788;4.940;2022-09-09T08:15:44;17.50;99.90
13610;DHT22;6876;50.788;4.940;2022-09-09T08:18:32;17.50;99.90
13610;DHT22;6876;50.788;4.940;2022-09-09T08:21:21;17.50;99.90
13610;DHT22;6876;50.788;4.940;2022-09-09T08:24:10;17.40;99.90
13610;DHT22;6876;50.788;4.940;2022-09-09T08:26:57;17.40;99.90
13610;DHT22;6876;50.788;4.940;2022-09-09T08:29:45;17.40;99.90
13610;DHT22;6876;50.788;4.940;2022-09-09T08:32:33;17.40;99.90
13610;DHT22;6876;50.788;4.940;2022-09-09T08:35:21;17.50;99.90
13610;DHT22;6876;50.788;4.940;2022-09-09T08:38:08;17.70;99.90
13610;DHT22;6876;50.788;4.940;2022-09-09T08:41:01;17.80;99.90
13610;DHT22;6876;50.788;4.940;2022-09-09T08:44:00;17.80;99.90
13610;DHT22;6876;50.788;4.940;2022-09-09T08:46:57;17.80;99.90
13610;DHT22;6876;50.788;4.940;2022-09-09T08:50:01;17.90;99.90
13610;DHT22;6876;50.788;4.940;2022-09-09T08:52:54;18.30;99.90
13610;DHT22;6876;50.788;4.940;2022-09-09T08:55:46;18.30;99.90
13610;DHT22;6876;50.788;4.940;2022-09-09T08:58:35;18.20;99.90
13610;DHT22;6876;50.788;4.940;2022-09-09T09:01:41;18.10;99.90
13610;DHT22;6876;50.788;4.940;2022-09-09T09:04:49;18.10;99.90
13610;DHT22;6876;50.788;4.940;2022-09-09T09:07:52;18.20;99.90
13610;DHT22;6876;50.788;4.940;2022-09-09T09:10:46;18.20;99.90
13610;DHT22;6876;50.788;4.940;2022-09-09T09:13:39;18.30;99.90
13610;DHT22;6876;50.788;4.940;2022-09-09T09:16:32;18.50;99.90
13610;DHT22;6876;50.788;4.940;2022-09-09T09:19:20;18.50;99.90
13610;DHT22;6876;50.788;4.940;2022-09-09T09:22:16;18.50;99.90
13610;DHT22;6876;50.788;4.940;2022-09-09T09:25:11;18.40;99.90
13610;DHT22;6876;50.788;4.940;2022-09-09T09:28:11;18.30;99.90
13610;DHT22;6876;50.788;4.940;2022-09-09T09:31:05;18.20;99.90
13610;DHT22;6876;50.788;4.940;2022-09-09T09:33:54;18.00;99.90
13610;DHT22;6876;50.788;4.940;2022-09-09T09:36:43;17.80;99.90
13610;DHT22;6876;50.788;4.940;2022-09-09T09:39:33;17.60;99.90
13610;DHT22;6876;50.788;4.940;2022-09-09T09:42:22;17.70;99.90
13610;DHT22;6876;50.788;4.940;2022-09-09T09:45:16;17.60;99.90
13610;DHT22;6876;50.788;4.940;2022-09-09T09:48:09;17.30;99.90
13610;DHT22;6876;50.788;4.940;2022-09-09T09:50:58;17.10;99.90
13610;DHT22;6876;50.788;4.940;2022-09-09T09:53:46;17.00;99.90
13610;DHT22;6876;50.788;4.940;2022-09-09T09:56:36;17.00;99.90
13610;DHT22;6876;50.788;4.940;2022-09-09T09:59:33;17.00;99.90
13610;DHT22;6876;50.788;4.940;2022-09-09T10:02:22;17.00;99.90
13610;DHT22;6876;50.788;4.940;2022-09-09T10:05:15;17.00;99.90
13610;DHT22;6876;50.788;4.940;2022-09-09T10:08:04;16.90;99.90
13610;DHT22;6876;50.788;4.940;2022-09-09T10:11:12;16.80;99.90
13610;DHT22;6876;50.788;4.940;2022-09-09T10:14:18;16.80;99.90
13610;DHT22;6876;50.788;4.940;2022-09-09T10:17:16;16.90;99.90
13610;DHT22;6876;50.788;4.940;2022-09-09T10:20:27;17.10;99.90
13610;DHT22;6876;50.788;4.940;2022-09-09T10:23:29;17.30;99.90
13610;DHT22;6876;50.788;4.940;2022-09-09T10:26:32;17.40;99.90
13610;DHT22;6876;50.788;4.940;2022-09-09T10:29:37;17.40;99.90
13610;DHT22;6876;50.788;4.940;2022-09-09T10:32:48;17.50;99.90
13610;DHT22;6876;50.788;4.940;2022-09-09T10:35:42;17.60;99.90
13610;DHT22;6876;50.788;4.940;2022-09-09T10:38:39;17.60;99.90
13610;DHT22;6876;50.788;4.940;2022-09-09T10:41:42;17.60;99.90
13610;DHT22;6876;50.788;4.940;2022-09-09T10:44:45;17.60;99.90
13610;DHT22;6876;50.788;4.940;2022-09-09T10:47:54;17.70;99.90
13610;DHT22;6876;50.788;4.940;2022-09-09T10:50:51;18.00;99.90
13610;DHT22;6876;50.788;4.940;2022-09-09T10:53:48;18.20;99.90
13610;DHT22;6876;50.788;4.940;2022-09-09T10:56:38;18.40;99.90
13610;DHT22;6876;50.788;4.940;2022-09-09T10:59:30;18.50;99.90
13610;DHT22;6876;50.788;4.940;2022-09-09T11:02:25;18.60;99.90
13610;DHT22;6876;50.788;4.940;2022-09-09T11:05:17;18.50;99.90
13610;DHT22;6876;50.788;4.940;2022-09-09T11:08:10;18.60;99.90
13610;DHT22;6876;50.788;4.940;2022-09-09T11:11:02;18.70;99.90
13610;DHT22;6876;50.788;4.940;2022-09-09T11:13:55;18.70;99.90
13610;DHT22;6876;50.788;4.940;2022-09-09T11:16:49;18.70;99.90
13610;DHT22;6876;50.788;4.940;2022-09-09T11:19:40;18.70;99.90
13610;DHT22;6876;50.788;4.940;2022-09-09T11:22:31;18.80;99.90
13610;DHT22;6876;50.788;4.940;2022-09-09T11:25:25;18.80;99.90
13610;DHT22;6876;50.788;4.940;2022-09-09T11:28:30;18.70;99.90
13610;DHT22;6876;50.788;4.940;2022-09-09T11:31:38;18.70;99.90
13610;DHT22;6876;50.788;4.940;2022-09-09T11:34:40;18.70;99.90
13610;DHT22;6876;50.788;4.940;2022-09-09T11:37:59;18.60;99.90
13610;DHT22;6876;50.788;4.940;2022-09-09T11:40:55;18.70;99.90
13610;DHT22;6876;50.788;4.940;2022-09-09T11:43:46;18.70;99.90
13610;DHT22;6876;50.788;4.940;2022-09-09T11:46:36;18.70;99.90
13610;DHT22;6876;50.788;4.940;2022-09-09T11:49:29;18.70;99.90
13610;DHT22;6876;50.788;4.940;2022-09-09T11:52:24;18.70;99.90
13610;DHT22;6876;50.788;4.940;2022-09-09T11:55:25;18.90;99.90
13610;DHT22;6876;50.788;4.940;2022-09-09T11:58:17;19.00;99.90
13610;DHT22;6876;50.788;4.940;2022-09-09T12:01:14;19.00;99.90
13610;DHT22;6876;50.788;4.940;2022-09-09T12:04:25;19.10;99.90
13610;DHT22;6876;50.788;4.940;2022-09-09T12:07:31;19.10;99.90
13610;DHT22;6876;50.788;4.940;2022-09-09T12:10:26;19.10;99.90
13610;DHT22;6876;50.788;4.940;2022-09-09T12:13:19;19.10;99.90
13610;DHT22;6876;50.788;4.940;2022-09-09T12:16:27;19.20;99.90
13610;DHT22;6876;50.788;4.940;2022-09-09T12:19:18;19.20;99.90
13610;DHT22;6876;50.788;4.940;2022-09-09T12:22:09;19.20;99.90
13610;DHT22;6876;50.788;4.940;2022-09-09T12:25:08;19.20;99.90
13610;DHT22;6876;50.788;4.940;2022-09-09T12:28:05;19.20;99.90
13610;DHT22;6876;50.788;4.940;2022-09-09T12:30:58;19.40;99.90
13610;DHT22;6876;50.788;4.940;2022-09-09T12:33:48;19.30;99.90
13610;DHT22;6876;50.788;4.940;2022-09-09T12:36:37;19.10;99.90
13610;DHT22;6876;50.788;4.940;2022-09-09T12:39:31;19.10;99.90
13610;DHT22;6876;50.788;4.940;2022-09-09T12:42:22;19.20;99.90
13610;DHT22;6876;50.788;4.940;2022-09-09T12:45:16;19.40;99.90
13610;DHT22;6876;50.788;4.940;2022-09-09T12:48:06;19.70;99.90
13610;DHT22;6876;50.788;4.940;2022-09-09T12:50:53;20.00;99.90
13610;DHT22;6876;50.788;4.940;2022-09-09T12:53:42;20.10;99.90
13610;DHT22;6876;50.788;4.940;2022-09-09T12:56:32;20.20;99.90
13610;DHT22;6876;50.788;4.940;2022-09-09T12:59:25;20.30;99.90
13610;DHT22;6876;50.788;4.940;2022-09-09T13:02:21;20.30;99.90
13610;DHT22;6876;50.788;4.940;2022-09-09T13:05:15;20.30;99.90
13610;DHT22;6876;50.788;4.940;2022-09-09T13:08:04;20.10;99.90
13610;DHT22;6876;50.788;4.940;2022-09-09T13:10:54;20.10;99.90
13610;DHT22;6876;50.788;4.940;2022-09-09T13:13:50;19.90;99.90
13610;DHT22;6876;50.788;4.940;2022-09-09T13:16:39;19.70;99.90
13610;DHT22;6876;50.788;4.940;2022-09-09T13:19:28;19.70;99.90
13610;DHT22;6876;50.788;4.940;2022-09-09T13:22:21;19.60;99.90
13610;DHT22;6876;50.788;4.940;2022-09-09T13:25:19;19.60;99.90
13610;DHT22;6876;50.788;4.940;2022-09-09T13:28:21;19.70;99.90
13610;DHT22;6876;50.788;4.940;2022-09-09T13:31:20;19.80;99.90
13610;DHT22;6876;50.788;4.940;2022-09-09T13:34:13;20.00;99.90
13610;DHT22;6876;50.788;4.940;2022-09-09T13:37:02;20.10;99.90
13610;DHT22;6876;50.788;4.940;2022-09-09T13:39:54;20.30;99.90
13610;DHT22;6876;50.788;4.940;2022-09-09T13:42:41;20.20;99.90
13610;DHT22;6876;50.788;4.940;2022-09-09T13:45:29;20.40;99.90
13610;DHT22;6876;50.788;4.940;2022-09-09T13:48:18;20.50;99.90
13610;DHT22;6876;50.788;4.940;2022-09-09T13:51:28;20.50;99.90
13610;DHT22;6876;50.788;4.940;2022-09-09T13:54:17;20.50;99.90
13610;DHT22;6876;50.788;4.940;2022-09-09T13:57:11;20.40;99.90
13610;DHT22;6876;50.788;4.940;2022-09-09T14:00:01;20.30;99.90
13610;DHT22;6876;50.788;4.940;2022-09-09T14:02:48;20.20;99.90
13610;DHT22;6876;50.788;4.940;2022-09-09T14:05:36;20.20;99.90
13610;DHT22;6876;50.788;4.940;2022-09-09T14:08:26;20.20;99.90
13610;DHT22;6876;50.788;4.940;2022-09-09T14:11:14;20.10;99.90
13610;DHT22;6876;50.788;4.940;2022-09-09T14:14:02;20.10;99.90
13610;DHT22;6876;50.788;4.940;2022-09-09T14:16:49;20.10;99.90
13610;DHT22;6876;50.788;4.940;2022-09-09T14:19:36;20.20;99.90
13610;DHT22;6876;50.788;4.940;2022-09-09T14:22:24;20.40;99.90
13610;DHT22;6876;50.788;4.940;2022-09-09T14:25:13;20.60;99.90
13610;DHT22;6876;50.788;4.940;2022-09-09T14:28:01;20.70;99.90
13610;DHT22;6876;50.788;4.940;2022-09-09T14:30:49;20.60;99.90
13610;DHT22;6876;50.788;4.940;2022-09-09T14:33:36;20.70;99.90
13610;DHT22;6876;50.788;4.940;2022-09-09T14:36:23;20.70;99.90
13610;DHT22;6876;50.788;4.940;2022-09-09T14:39:11;20.60;99.90
13610;DHT22;6876;50.788;4.940;2022-09-09T14:42:00;20.60;99.90
13610;DHT22;6876;50.788;4.940;2022-09-09T14:44:48;20.80;99.90
13610;DHT22;6876;50.788;4.940;2022-09-09T14:47:35;20.90;99.90
13610;DHT22;6876;50.788;4.940;2022-09-09T14:50:24;20.70;99.90
13610;DHT22;6876;50.788;4.940;2022-09-09T14:53:11;20.90;99.90
13610;DHT22;6876;50.788;4.940;2022-09-09T14:56:04;21.00;99.90
13610;DHT22;6876;50.788;4.940;2022-09-09T14:58:55;20.90;99.90
13610;DHT22;6876;50.788;4.940;2022-09-09T15:01:42;20.90;99.90
13610;DHT22;6876;50.788;4.940;2022-09-09T15:04:30;20.90;99.90
13610;DHT22;6876;50.788;4.940;2022-09-09T15:07:17;20.90;99.90
13610;DHT22;6876;50.788;4.940;2022-09-09T15:10:05;21.00;99.90
13610;DHT22;6876;50.788;4.940;2022-09-09T15:12:53;20.80;99.90
13610;DHT22;6876;50.788;4.940;2022-09-09T15:15:41;20.70;99.90
13610;DHT22;6876;50.788;4.940;2022-09-09T15:18:29;20.70;99.90
13610;DHT22;6876;50.788;4.940;2022-09-09T15:21:19;20.80;99.90
13610;DHT22;6876;50.788;4.940;2022-09-09T15:24:07;20.80;99.90
13610;DHT22;6876;50.788;4.940;2022-09-09T15:26:54;20.80;99.90
13610;DHT22;6876;50.788;4.940;2022-09-09T15:29:42;20.80;99.90
13610;DHT22;6876;50.788;4.940;2022-09-09T15:32:31;20.90;99.90
13610;DHT22;6876;50.788;4.940;2022-09-09T15:35:20;20.80;99.90
13610;DHT22;6876;50.788;4.940;2022-09-09T15:38:07;20.70;99.90
13610;DHT22;6876;50.788;4.940;2022-09-09T15:40:55;20.50;99.90
13610;DHT22;6876;50.788;4.940;2022-09-09T15:43:43;20.40;99.90
13610;DHT22;6876;50.788;4.940;2022-09-09T15:46:33;20.10;99.90
13610;DHT22;6876;50.788;4.940;2022-09-09T15:49:24;20.00;99.90
13610;DHT22;6876;50.788;4.940;2022-09-09T15:52:12;20.00;99.90
13610;DHT22;6876;50.788;4.940;2022-09-09T15:54:59;19.90;99.90
13610;DHT22;6876;50.788;4.940;2022-09-09T15:57:46;19.80;99.90
13610;DHT22;6876;50.788;4.940;2022-09-09T16:00:34;19.60;99.90
13610;DHT22;6876;50.788;4.940;2022-09-09T16:03:21;19.50;99.90
13610;DHT22;6876;50.788;4.940;2022-09-09T16:06:10;19.40;99.90
13610;DHT22;6876;50.788;4.940;2022-09-09T16:08:58;19.50;99.90
13610;DHT22;6876;50.788;4.940;2022-09-09T16:11:47;19.60;99.90
13610;DHT22;6876;50.788;4.940;2022-09-09T16:14:34;19.70;99.90
13610;DHT22;6876;50.788;4.940;2022-09-09T16:17:21;19.70;99.90
13610;DHT22;6876;50.788;4.940;2022-09-09T16:20:09;19.70;99.90
13610;DHT22;6876;50.788;4.940;2022-09-09T16:22:59;19.70;99.90
13610;DHT22;6876;50.788;4.940;2022-09-09T16:25:53;19.70;99.90
13610;DHT22;6876;50.788;4.940;2022-09-09T16:28:41;19.70;99.90
13610;DHT22;6876;50.788;4.940;2022-09-09T16:31:29;19.80;99.90
13610;DHT22;6876;50.788;4.940;2022-09-09T16:34:17;19.80;99.90
13610;DHT22;6876;50.788;4.940;2022-09-09T16:37:04;19.80;99.90
13610;DHT22;6876;50.788;4.940;2022-09-09T16:39:54;19.80;99.90
13610;DHT22;6876;50.788;4.940;2022-09-09T16:42:41;19.90;99.90
13610;DHT22;6876;50.788;4.940;2022-09-09T16:45:29;19.90;99.90
13610;DHT22;6876;50.788;4.940;2022-09-09T16:48:18;19.80;99.90
13610;DHT22;6876;50.788;4.940;2022-09-09T16:51:09;19.80;99.90
13610;DHT22;6876;50.788;4.940;2022-09-09T16:54:01;19.70;99.90
13610;DHT22;6876;50.788;4.940;2022-09-09T16:56:50;19.70;99.90
13610;DHT22;6876;50.788;4.940;2022-09-09T16:59:38;19.60;99.90
13610;DHT22;6876;50.788;4.940;2022-09-09T17:02:25;19.50;99.90
13610;DHT22;6876;50.788;4.940;2022-09-09T17:05:12;19.50;99.90
13610;DHT22;6876;50.788;4.940;2022-09-09T17:08:00;19.40;99.90
13610;DHT22;6876;50.788;4.940;2022-09-09T17:10:47;19.30;99.90
13610;DHT22;6876;50.788;4.940;2022-09-09T17:13:36;19.20;99.90
13610;DHT22;6876;50.788;4.940;2022-09-09T17:16:25;19.10;99.90
13610;DHT22;6876;50.788;4.940;2022-09-09T17:19:14;19.10;99.90
13610;DHT22;6876;50.788;4.940;2022-09-09T17:22:01;19.00;99.90
13610;DHT22;6876;50.788;4.940;2022-09-09T17:24:48;19.00;99.90
13610;DHT22;6876;50.788;4.940;2022-09-09T17:27:35;19.00;99.90
13610;DHT22;6876;50.788;4.940;2022-09-09T17:30:24;18.90;99.90
13610;DHT22;6876;50.788;4.940;2022-09-09T17:33:11;18.90;99.90
13610;DHT22;6876;50.788;4.940;2022-09-09T17:35:59;18.80;99.90
13610;DHT22;6876;50.788;4.940;2022-09-09T17:38:47;18.80;99.90
13610;DHT22;6876;50.788;4.940;2022-09-09T17:41:37;18.80;99.90
13610;DHT22;6876;50.788;4.940;2022-09-09T17:44:25;18.80;99.90
13610;DHT22;6876;50.788;4.940;2022-09-09T17:47:16;18.80;99.90
13610;DHT22;6876;50.788;4.940;2022-09-09T17:50:03;18.70;99.90
13610;DHT22;6876;50.788;4.940;2022-09-09T17:52:52;18.60;99.90
13610;DHT22;6876;50.788;4.940;2022-09-09T17:55:39;18.50;99.90
13610;DHT22;6876;50.788;4.940;2022-09-09T17:58:26;18.30;99.90
13610;DHT22;6876;50.788;4.940;2022-09-09T18:01:16;18.10;99.90
13610;DHT22;6876;50.788;4.940;2022-09-09T18:04:07;18.00;99.90
13610;DHT22;6876;50.788;4.940;2022-09-09T18:06:55;17.90;99.90
13610;DHT22;6876;50.788;4.940;2022-09-09T18:09:43;17.80;99.90
13610;DHT22;6876;50.788;4.940;2022-09-09T18:12:30;17.80;99.90
13610;DHT22;6876;50.788;4.940;2022-09-09T18:15:17;17.80;99.90